createdAt,value
2022-10-09T00:00:50.140Z,75.79
2022-10-09T00:03:17.339Z,75.82
2022-10-09T00:05:44.699Z,76.14
2022-10-09T00:08:11.516Z,75.99
2022-10-09T00:10:42.476Z,76.58
2022-10-09T00:13:09.034Z,76.33
2022-10-09T00:15:40.037Z,76.40
2022-10-09T00:18:07.330Z,76.82
2022-10-09T00:20:41.722Z,76.79
2022-10-09T00:23:08.521Z,76.69
2022-10-09T00:25:35.933Z,77.07
2022-10-09T00:28:03.454Z,77.00
2022-10-09T00:30:29.963Z,76.88
2022-10-09T00:32:56.562Z,77.12
2022-10-09T00:35:23.240Z,76.90
2022-10-09T00:37:49.706Z,76.89
2022-10-09T00:40:16.468Z,76.96
2022-10-09T00:42:45.493Z,76.88
2022-10-09T00:45:19.752Z,76.71
2022-10-09T00:47:48.255Z,76.91
2022-10-09T00:50:24.532Z,77.12
2022-10-09T00:52:54.373Z,76.81
2022-10-09T00:55:22.200Z,76.67
2022-10-09T00:57:50.137Z,76.60
2022-10-09T01:00:16.717Z,76.63
2022-10-09T01:02:43.420Z,76.63
2022-10-09T01:05:10.675Z,76.77
2022-10-09T01:08:22.107Z,76.62
2022-10-09T01:10:59.453Z,76.39
2022-10-09T01:13:40.012Z,76.66
2022-10-09T01:16:28.281Z,76.48
2022-10-09T01:19:05.340Z,76.36
2022-10-09T01:21:35.855Z,76.28
2022-10-09T01:24:05.259Z,76.20
2022-10-09T01:26:35.638Z,76.28
2022-10-09T01:29:05.463Z,76.13
2022-10-09T01:31:34.233Z,76.35
2022-10-09T01:34:01.283Z,76.48
2022-10-09T01:36:29.516Z,76.32
2022-10-09T01:38:58.563Z,76.49
2022-10-09T01:41:25.620Z,76.59
2022-10-09T01:43:52.040Z,76.61
2022-10-09T01:46:30.203Z,76.76
2022-10-09T01:49:11.046Z,76.85
2022-10-09T01:51:46.319Z,77.13
2022-10-09T01:54:14.547Z,77.13
2022-10-09T01:56:43.440Z,76.88
2022-10-09T01:59:15.901Z,76.84
2022-10-09T02:01:42.925Z,76.84
2022-10-09T02:04:11.933Z,76.79
2022-10-09T02:06:40.169Z,76.61
2022-10-09T02:09:08.953Z,76.72
2022-10-09T02:11:36.006Z,76.81
2022-10-09T02:14:02.670Z,77.34
2022-10-09T02:17:02.627Z,77.17
2022-10-09T02:19:43.296Z,77.13
2022-10-09T02:22:28.263Z,77.54
2022-10-09T02:24:55.120Z,77.77
2022-10-09T02:27:21.923Z,77.42
2022-10-09T02:29:49.249Z,77.45
2022-10-09T02:32:16.319Z,77.48
2022-10-09T02:34:42.829Z,77.14
2022-10-09T02:37:09.229Z,77.03
2022-10-09T02:39:36.008Z,76.87
2022-10-09T02:42:03.007Z,76.98
2022-10-09T02:44:29.433Z,76.73
2022-10-09T02:46:55.870Z,76.54
2022-10-09T02:49:22.305Z,76.45
2022-10-09T02:51:48.771Z,76.30
2022-10-09T02:54:15.212Z,75.67
2022-10-09T02:56:41.667Z,75.58
2022-10-09T02:59:08.112Z,75.44
2022-10-09T03:01:34.996Z,75.28
2022-10-09T03:04:01.572Z,75.73
2022-10-09T03:06:28.899Z,75.81
2022-10-09T03:08:56.135Z,75.95
2022-10-09T03:11:24.416Z,75.90
2022-10-09T03:13:51.010Z,75.95
2022-10-09T03:16:22.582Z,76.61
2022-10-09T03:18:49.922Z,77.08
2022-10-09T03:21:18.692Z,76.71
2022-10-09T03:23:45.510Z,77.12
2022-10-09T03:26:18.136Z,77.17
2022-10-09T03:28:47.869Z,77.42
2022-10-09T03:31:39.781Z,77.48
2022-10-09T03:34:05.623Z,78.10
2022-10-09T03:36:32.049Z,77.91
2022-10-09T03:38:58.464Z,77.88
2022-10-09T03:41:24.890Z,77.34
2022-10-09T03:43:51.299Z,76.91
2022-10-09T03:46:17.824Z,77.31
2022-10-09T03:48:44.273Z,77.25
2022-10-09T03:51:10.684Z,77.09
2022-10-09T03:53:37.133Z,77.05
2022-10-09T03:56:03.612Z,76.95
2022-10-09T03:58:30.044Z,76.45
2022-10-09T04:00:56.546Z,76.53
2022-10-09T04:03:23.212Z,76.79
2022-10-09T04:05:49.681Z,76.81
2022-10-09T04:08:16.228Z,76.53
2022-10-09T04:10:42.655Z,76.81
2022-10-09T04:13:09.081Z,77.10
2022-10-09T04:15:36.620Z,77.34
2022-10-09T04:18:03.646Z,77.21
2022-10-09T04:20:30.078Z,77.32
2022-10-09T04:22:56.469Z,77.80
2022-10-09T04:25:22.912Z,77.95
2022-10-09T04:27:49.349Z,78.17
2022-10-09T04:30:15.809Z,78.29
2022-10-09T04:32:42.308Z,78.64
2022-10-09T04:35:08.864Z,78.62
2022-10-09T04:37:36.655Z,78.42
2022-10-09T04:40:03.480Z,78.12
2022-10-09T04:42:30.325Z,77.74
2022-10-09T04:44:56.779Z,77.48
2022-10-09T04:47:23.185Z,77.53
2022-10-09T04:49:49.944Z,77.76
2022-10-09T04:52:16.362Z,77.92
2022-10-09T04:54:42.850Z,78.18
2022-10-09T04:57:09.250Z,77.95
2022-10-09T04:59:35.682Z,77.87
2022-10-09T05:02:02.145Z,78.52
2022-10-09T05:04:28.640Z,78.62
2022-10-09T05:06:55.037Z,79.04
2022-10-09T05:09:21.437Z,79.51
2022-10-09T05:11:47.832Z,79.72
2022-10-09T05:14:14.338Z,79.99
2022-10-09T05:16:55.282Z,80.29
2022-10-09T05:19:27.221Z,80.33
2022-10-09T05:21:54.257Z,80.66
2022-10-09T05:24:20.888Z,80.52
2022-10-09T05:26:47.386Z,80.65
2022-10-09T05:29:13.824Z,80.70
2022-10-09T05:31:40.300Z,80.48
2022-10-09T05:34:06.738Z,80.31
2022-10-09T05:36:33.160Z,80.05
2022-10-09T05:39:01.208Z,79.87
2022-10-09T05:41:29.490Z,80.11
2022-10-09T05:44:01.017Z,79.83
2022-10-09T05:46:28.429Z,79.78
2022-10-09T05:49:05.536Z,79.65
2022-10-09T05:51:34.748Z,79.34
2022-10-09T05:54:04.592Z,78.92
2022-10-09T05:56:36.415Z,79.08
2022-10-09T05:59:08.355Z,78.91
2022-10-09T06:01:39.670Z,79.50
2022-10-09T06:04:10.817Z,79.65
2022-10-09T06:06:38.460Z,79.93
2022-10-09T06:09:05.945Z,80.10
2022-10-09T06:11:34.349Z,80.00
2022-10-09T06:14:02.503Z,80.28
2022-10-09T06:16:31.834Z,80.11
2022-10-09T06:18:58.839Z,80.09
2022-10-09T06:21:26.585Z,79.76
2022-10-09T06:23:57.768Z,80.36
2022-10-09T06:26:25.438Z,80.47
2022-10-09T06:28:52.898Z,80.79
2022-10-09T06:31:25.163Z,80.84
2022-10-09T06:33:52.882Z,80.78
2022-10-09T06:36:28.541Z,80.49
2022-10-09T06:38:55.125Z,80.21
2022-10-09T06:41:26.221Z,79.91
2022-10-09T06:44:01.314Z,80.18
2022-10-09T06:46:31.512Z,80.26
2022-10-09T06:49:01.390Z,80.63
2022-10-09T06:51:28.713Z,80.46
2022-10-09T06:53:56.655Z,80.77
2022-10-09T06:56:24.875Z,81.17
2022-10-09T06:58:51.650Z,81.44
2022-10-09T07:01:32.749Z,81.60
2022-10-09T07:04:07.024Z,81.75
2022-10-09T07:06:37.044Z,81.71
2022-10-09T07:09:06.228Z,81.60
2022-10-09T07:11:35.183Z,81.47
2022-10-09T07:14:03.599Z,81.73
2022-10-09T07:16:32.409Z,81.98
2022-10-09T07:19:01.124Z,82.40
2022-10-09T07:21:27.583Z,82.63
2022-10-09T07:23:54.159Z,82.72
2022-10-09T07:26:23.307Z,82.64
2022-10-09T07:28:50.371Z,82.79
2022-10-09T07:31:17.267Z,83.21
2022-10-09T07:33:47.180Z,83.50
2022-10-09T07:36:13.621Z,83.52
2022-10-09T07:38:40.098Z,83.65
2022-10-09T07:41:09.119Z,83.75
2022-10-09T07:43:41.180Z,84.02
2022-10-09T07:46:11.780Z,83.68
2022-10-09T07:48:38.422Z,83.72
2022-10-09T07:51:17.535Z,83.67
2022-10-09T07:53:44.784Z,84.03
2022-10-09T07:56:19.576Z,83.79
2022-10-09T07:58:53.897Z,84.23
2022-10-09T08:01:21.263Z,84.14
2022-10-09T08:03:48.751Z,83.70
2022-10-09T08:06:15.952Z,84.19
2022-10-09T08:08:43.510Z,84.34
2022-10-09T08:11:11.482Z,83.89
2022-10-09T08:13:40.725Z,83.89
2022-10-09T08:16:07.566Z,83.94
2022-10-09T08:18:34.284Z,83.55
2022-10-09T08:21:02.478Z,83.46
2022-10-09T08:23:29.001Z,83.23
2022-10-09T08:25:56.110Z,82.91
2022-10-09T08:28:23.049Z,82.67
2022-10-09T08:30:49.571Z,82.18
2022-10-09T08:33:20.154Z,81.78
2022-10-09T08:35:46.921Z,81.50
2022-10-09T08:38:30.917Z,81.62
2022-10-09T08:41:05.317Z,81.68
2022-10-09T08:43:39.713Z,81.79
2022-10-09T08:46:12.519Z,81.80
2022-10-09T08:48:41.726Z,81.59
2022-10-09T08:51:15.676Z,81.50
2022-10-09T08:53:54.777Z,81.16
2022-10-09T08:56:22.031Z,81.03
2022-10-09T08:58:48.526Z,80.93
2022-10-09T09:01:37.919Z,80.49
2022-10-09T09:04:49.014Z,79.89
2022-10-09T09:07:31.911Z,79.82
2022-10-09T09:10:13.499Z,79.38
2022-10-09T09:12:49.455Z,79.31
2022-10-09T09:15:31.229Z,79.46
2022-10-09T09:18:14.630Z,79.07
2022-10-09T09:20:59.383Z,78.50
2022-10-09T09:23:31.352Z,77.76
2022-10-09T09:25:59.487Z,77.26
2022-10-09T09:28:33.557Z,76.96
2022-10-09T09:31:00.732Z,76.68
2022-10-09T09:33:43.640Z,76.53
2022-10-09T09:36:22.737Z,76.11
2022-10-09T09:39:35.093Z,75.58
2022-10-09T09:41:36.124Z,74.88
2022-10-09T09:44:02.832Z,74.28
2022-10-09T09:46:30.478Z,73.97
2022-10-09T09:48:56.940Z,73.54
2022-10-09T09:51:30.046Z,73.42
2022-10-09T09:54:07.999Z,72.93
2022-10-09T09:57:06.789Z,72.34
2022-10-09T09:59:40.029Z,72.11
2022-10-09T10:02:06.395Z,71.80
2022-10-09T10:04:33.110Z,71.56
2022-10-09T10:06:59.727Z,71.38
2022-10-09T10:09:27.051Z,71.04
2022-10-09T10:11:59.237Z,70.18
2022-10-09T10:14:26.470Z,69.38
2022-10-09T10:16:54.483Z,69.50
2022-10-09T10:19:26.354Z,69.61
2022-10-09T10:22:07.377Z,69.77
2022-10-09T10:24:43.741Z,70.07
2022-10-09T10:27:35.100Z,70.35
2022-10-09T10:30:04.322Z,70.52
2022-10-09T10:32:35.170Z,70.33
2022-10-09T10:35:23.961Z,69.52
2022-10-09T10:38:09.327Z,68.81
2022-10-09T10:40:38.252Z,67.82
2022-10-09T10:43:10.638Z,67.28
2022-10-09T10:45:43.207Z,67.10
2022-10-09T10:48:11.481Z,67.08
2022-10-09T10:50:45.434Z,66.40
2022-10-09T10:53:30.186Z,65.50
2022-10-09T10:56:05.474Z,64.79
2022-10-09T10:58:47.160Z,64.68
2022-10-09T11:01:35.633Z,64.88
2022-10-09T11:04:13.334Z,64.21
2022-10-09T11:06:58.518Z,63.41
2022-10-09T11:09:37.022Z,63.48
2022-10-09T11:12:19.606Z,63.10
2022-10-09T11:15:05.099Z,63.53
2022-10-09T11:18:13.448Z,62.71
2022-10-09T11:20:57.952Z,61.76
2022-10-09T11:23:39.680Z,62.16
2022-10-09T11:26:17.471Z,60.86
2022-10-09T11:28:49.582Z,60.73
2022-10-09T11:31:28.827Z,60.57
2022-10-09T11:34:00.105Z,59.08
2022-10-09T11:36:43.706Z,58.45
2022-10-09T11:39:22.341Z,58.39
2022-10-09T11:41:51.241Z,57.53
2022-10-09T11:45:05.841Z,56.94
2022-10-09T11:47:43.666Z,56.17
2022-10-09T11:50:18.662Z,55.27
2022-10-09T11:53:08.132Z,55.45
2022-10-09T11:55:35.029Z,54.79
2022-10-09T11:58:19.965Z,53.89
2022-10-09T12:00:50.546Z,53.58
2022-10-09T12:03:27.395Z,53.08
2022-10-09T12:06:03.100Z,52.50
2022-10-09T12:08:29.595Z,52.50
2022-10-09T12:11:13.912Z,52.57
2022-10-09T12:13:44.916Z,52.64
2022-10-09T12:16:34.546Z,52.72
2022-10-09T12:19:04.076Z,52.50
2022-10-09T12:21:51.134Z,52.21
2022-10-09T12:24:21.993Z,52.77
2022-10-09T12:26:50.221Z,51.73
2022-10-09T12:29:21.775Z,51.39
2022-10-09T12:31:50.902Z,51.54
2022-10-09T12:34:29.851Z,51.22
2022-10-09T12:37:20.292Z,50.58
2022-10-09T12:39:48.009Z,50.08
2022-10-09T12:42:21.740Z,50.09
2022-10-09T12:44:49.096Z,50.44
2022-10-09T12:47:27.415Z,48.82
2022-10-09T12:50:03.545Z,48.30
2022-10-09T12:52:31.573Z,48.19
2022-10-09T12:54:58.387Z,48.87
2022-10-09T12:57:27.737Z,49.26
2022-10-09T12:59:54.964Z,48.90
2022-10-09T13:02:22.350Z,47.32
2022-10-09T13:05:00.813Z,47.80
2022-10-09T13:07:28.682Z,47.51
2022-10-09T13:10:07.952Z,48.33
2022-10-09T13:12:34.819Z,47.44
2022-10-09T13:15:07.109Z,47.55
2022-10-09T13:17:41.336Z,47.33
2022-10-09T13:20:16.768Z,47.70
2022-10-09T13:23:04.480Z,47.50
2022-10-09T13:25:43.516Z,47.83
2022-10-09T13:28:13.542Z,48.23
2022-10-09T13:30:40.045Z,48.46
2022-10-09T13:33:15.149Z,49.43
2022-10-09T13:35:41.757Z,48.13
2022-10-09T13:38:13.362Z,47.41
2022-10-09T13:40:39.782Z,47.53
2022-10-09T13:43:07.409Z,47.87
2022-10-09T13:45:33.872Z,47.91
2022-10-09T13:48:01.484Z,47.76
2022-10-09T13:50:28.013Z,47.77
2022-10-09T13:52:54.454Z,47.65
2022-10-09T13:55:21.378Z,47.59
2022-10-09T13:57:48.096Z,47.79
2022-10-09T14:00:14.900Z,47.18
2022-10-09T14:02:41.283Z,46.60
2022-10-09T14:05:07.969Z,47.13
2022-10-09T14:07:34.411Z,47.60
2022-10-09T14:10:00.858Z,47.85
2022-10-09T14:12:27.251Z,48.16
2022-10-09T14:14:54.088Z,47.25
2022-10-09T14:17:20.519Z,46.97
2022-10-09T14:19:46.999Z,46.98
2022-10-09T14:22:14.643Z,46.98
2022-10-09T14:24:41.096Z,47.12
2022-10-09T14:27:07.539Z,46.49
2022-10-09T14:29:33.970Z,46.45
2022-10-09T14:32:00.407Z,46.66
2022-10-09T14:34:26.862Z,46.54
2022-10-09T14:36:53.346Z,46.45
2022-10-09T14:39:19.770Z,47.02
2022-10-09T14:41:46.360Z,47.05
2022-10-09T14:44:12.913Z,46.36
2022-10-09T14:46:39.632Z,46.93
2022-10-09T14:49:07.885Z,47.22
2022-10-09T14:51:37.097Z,47.36
2022-10-09T14:54:04.243Z,48.06
2022-10-09T14:56:30.709Z,48.44
2022-10-09T14:58:58.530Z,47.96
2022-10-09T15:01:25.006Z,47.33
2022-10-09T15:03:51.613Z,47.37
2022-10-09T15:06:20.087Z,47.92
2022-10-09T15:08:46.578Z,48.01
2022-10-09T15:11:13.014Z,48.26
2022-10-09T15:13:39.643Z,48.26
2022-10-09T15:16:08.870Z,48.56
2022-10-09T15:18:35.822Z,48.75
2022-10-09T15:21:02.642Z,49.13
2022-10-09T15:23:29.425Z,49.28
2022-10-09T15:25:57.960Z,49.48
2022-10-09T15:28:25.233Z,49.51
2022-10-09T15:30:54.505Z,49.31
2022-10-09T15:33:24.950Z,49.11
2022-10-09T15:35:52.466Z,48.98
2022-10-09T15:38:21.423Z,49.06
2022-10-09T15:40:51.421Z,49.53
2022-10-09T15:43:20.367Z,49.35
2022-10-09T15:45:47.280Z,50.91
2022-10-09T15:48:21.962Z,49.47
2022-10-09T15:50:50.623Z,49.04
2022-10-09T15:53:18.844Z,49.25
2022-10-09T15:55:46.747Z,49.45
2022-10-09T15:58:13.900Z,49.50
2022-10-09T16:00:42.131Z,49.77
2022-10-09T16:03:08.680Z,49.90
2022-10-09T16:05:46.972Z,49.94
2022-10-09T16:08:13.487Z,50.27
2022-10-09T16:10:49.546Z,50.68
2022-10-09T16:13:16.274Z,50.94
2022-10-09T16:15:43.632Z,51.04
2022-10-09T16:18:10.490Z,51.15
2022-10-09T16:20:38.164Z,51.46
2022-10-09T16:23:04.990Z,51.55
2022-10-09T16:25:31.503Z,51.81
2022-10-09T16:27:57.971Z,51.91
2022-10-09T16:30:25.235Z,51.81
2022-10-09T16:32:52.347Z,52.02
2022-10-09T16:35:19.555Z,51.81
2022-10-09T16:37:45.962Z,52.13
2022-10-09T16:40:12.412Z,52.23
2022-10-09T16:42:38.842Z,52.37
2022-10-09T16:45:06.031Z,52.08
2022-10-09T16:47:33.937Z,52.43
2022-10-09T16:50:00.384Z,52.72
2022-10-09T16:52:26.800Z,52.72
2022-10-09T16:54:57.062Z,52.87
2022-10-09T16:57:26.006Z,53.05
2022-10-09T16:59:52.449Z,53.19
2022-10-09T17:02:18.938Z,53.23
2022-10-09T17:04:46.046Z,53.47
2022-10-09T17:07:12.753Z,53.61
2022-10-09T17:09:40.412Z,53.77
2022-10-09T17:12:09.636Z,54.01
2022-10-09T17:14:37.213Z,54.02
2022-10-09T17:17:04.860Z,54.22
2022-10-09T17:19:32.402Z,54.55
2022-10-09T17:22:00.070Z,54.62
2022-10-09T17:24:26.894Z,54.82
2022-10-09T17:26:53.687Z,54.97
2022-10-09T17:29:20.428Z,54.95
2022-10-09T17:31:46.856Z,55.14
2022-10-09T17:34:13.848Z,55.31
2022-10-09T17:36:41.416Z,55.36
2022-10-09T17:39:11.831Z,55.41
2022-10-09T17:41:38.268Z,55.74
2022-10-09T17:44:04.700Z,55.93
2022-10-09T17:46:31.229Z,56.02
2022-10-09T17:48:59.432Z,56.22
2022-10-09T17:51:31.669Z,56.36
2022-10-09T17:54:01.174Z,56.54
2022-10-09T17:56:28.846Z,56.86
2022-10-09T17:58:58.162Z,57.00
2022-10-09T18:01:24.692Z,57.44
2022-10-09T18:03:52.097Z,57.80
2022-10-09T18:06:22.409Z,58.32
2022-10-09T18:08:48.877Z,58.89
2022-10-09T18:11:16.571Z,59.18
2022-10-09T18:13:44.026Z,59.40
2022-10-09T18:16:17.221Z,59.54
2022-10-09T18:18:44.056Z,59.79
2022-10-09T18:21:12.642Z,59.91
2022-10-09T18:23:39.338Z,59.65
2022-10-09T18:26:10.403Z,59.69
2022-10-09T18:28:38.208Z,59.57
2022-10-09T18:31:09.262Z,59.83
2022-10-09T18:33:36.139Z,59.99
2022-10-09T18:36:09.153Z,59.80
2022-10-09T18:38:35.670Z,59.95
2022-10-09T18:41:02.177Z,60.35
2022-10-09T18:43:28.953Z,60.52
2022-10-09T18:45:55.970Z,60.52
2022-10-09T18:48:22.521Z,60.86
2022-10-09T18:50:49.055Z,61.30
2022-10-09T18:53:15.547Z,61.23
2022-10-09T18:55:42.702Z,61.56
2022-10-09T18:58:09.237Z,61.48
2022-10-09T19:00:37.143Z,61.46
2022-10-09T19:03:03.842Z,61.58
2022-10-09T19:05:30.261Z,61.73
2022-10-09T19:07:56.727Z,61.94
2022-10-09T19:10:23.196Z,62.13
2022-10-09T19:12:52.301Z,62.12
2022-10-09T19:15:19.377Z,62.11
2022-10-09T19:17:45.853Z,62.13
2022-10-09T19:20:12.298Z,62.27
2022-10-09T19:22:38.708Z,62.19
2022-10-09T19:25:05.857Z,62.25
2022-10-09T19:27:32.555Z,62.19
2022-10-09T19:29:59.551Z,62.42
2022-10-09T19:32:26.230Z,62.49
2022-10-09T19:34:52.751Z,62.74
2022-10-09T19:37:19.216Z,62.99
2022-10-09T19:39:48.520Z,62.72
2022-10-09T19:42:16.357Z,62.90
2022-10-09T19:44:44.495Z,62.85
2022-10-09T19:47:12.497Z,62.91
2022-10-09T19:49:38.952Z,62.50
2022-10-09T19:52:06.424Z,62.69
2022-10-09T19:54:34.138Z,62.74
2022-10-09T19:57:01.811Z,62.88
2022-10-09T19:59:29.902Z,62.79
2022-10-09T20:01:57.698Z,62.83
2022-10-09T20:04:24.257Z,63.44
2022-10-09T20:06:51.541Z,63.71
2022-10-09T20:09:20.640Z,63.88
2022-10-09T20:11:48.067Z,64.13
2022-10-09T20:14:14.575Z,64.39
2022-10-09T20:16:41.107Z,64.55
2022-10-09T20:19:07.905Z,64.66
2022-10-09T20:21:34.461Z,64.89
2022-10-09T20:24:01.442Z,65.18
2022-10-09T20:26:28.446Z,65.00
2022-10-09T20:28:55.838Z,65.16
2022-10-09T20:31:24.277Z,65.23
2022-10-09T20:33:51.768Z,65.49
2022-10-09T20:36:31.091Z,65.64
2022-10-09T20:38:59.329Z,65.89
2022-10-09T20:41:27.576Z,66.03
2022-10-09T20:43:55.290Z,66.26
2022-10-09T20:46:23.726Z,66.30
2022-10-09T20:48:52.197Z,66.48
2022-10-09T20:51:19.610Z,66.53
2022-10-09T20:53:47.094Z,66.58
2022-10-09T20:56:14.432Z,66.88
2022-10-09T20:58:41.477Z,66.87
2022-10-09T21:01:09.396Z,67.05
2022-10-09T21:03:36.661Z,67.42
2022-10-09T21:06:04.338Z,67.38
2022-10-09T21:08:30.894Z,67.35
2022-10-09T21:10:57.680Z,67.28
2022-10-09T21:13:24.210Z,67.63
2022-10-09T21:15:50.712Z,67.59
2022-10-09T21:18:18.631Z,67.87
2022-10-09T21:20:46.527Z,67.80
2022-10-09T21:23:14.038Z,68.07
2022-10-09T21:25:47.735Z,68.00
2022-10-09T21:28:14.277Z,68.22
2022-10-09T21:30:41.836Z,68.56
2022-10-09T21:33:09.247Z,68.41
2022-10-09T21:35:44.260Z,68.62
2022-10-09T21:38:13.425Z,69.22
2022-10-09T21:40:40.313Z,68.85
2022-10-09T21:43:07.286Z,69.02
2022-10-09T21:45:34.774Z,69.14
2022-10-09T21:48:01.242Z,69.18
2022-10-09T21:50:27.913Z,69.17
2022-10-09T21:52:54.389Z,69.33
2022-10-09T21:55:20.793Z,69.33
2022-10-09T21:57:47.454Z,69.09
2022-10-09T22:00:14.088Z,69.51
2022-10-09T22:02:40.547Z,69.29
2022-10-09T22:05:07.561Z,69.52
2022-10-09T22:07:34.173Z,69.49
2022-10-09T22:10:00.603Z,69.50
2022-10-09T22:12:27.026Z,69.43
2022-10-09T22:14:53.475Z,69.55
2022-10-09T22:17:19.931Z,69.55
2022-10-09T22:19:46.389Z,69.91
2022-10-09T22:22:12.821Z,70.01
2022-10-09T22:24:39.369Z,70.15
2022-10-09T22:27:07.141Z,70.08
2022-10-09T22:29:33.558Z,70.42
2022-10-09T22:32:00.042Z,70.44
2022-10-09T22:34:26.459Z,70.59
2022-10-09T22:36:52.871Z,70.60
2022-10-09T22:39:19.317Z,70.56
2022-10-09T22:41:45.862Z,70.76
2022-10-09T22:44:12.274Z,70.46
2022-10-09T22:46:41.570Z,70.58
2022-10-09T22:49:10.752Z,70.95
2022-10-09T22:51:37.148Z,70.84
2022-10-09T22:54:03.701Z,70.83
2022-10-09T22:56:32.682Z,71.11
2022-10-09T22:58:59.175Z,71.28
2022-10-09T23:01:32.851Z,71.35
2022-10-09T23:04:01.356Z,71.14
2022-10-09T23:06:27.899Z,71.40
2022-10-09T23:08:54.508Z,71.75
2022-10-09T23:11:21.871Z,72.18
2022-10-09T23:13:55.361Z,71.85
2022-10-09T23:16:22.402Z,72.19
2022-10-09T23:18:49.057Z,72.12
2022-10-09T23:21:18.258Z,72.45
2022-10-09T23:23:45.279Z,72.35
2022-10-09T23:26:14.551Z,72.27
2022-10-09T23:28:41.465Z,72.33
2022-10-09T23:31:13.176Z,72.82
2022-10-09T23:33:41.060Z,72.61
2022-10-09T23:36:08.612Z,72.57
2022-10-09T23:38:35.571Z,72.62
2022-10-09T23:41:07.099Z,72.79
2022-10-09T23:43:35.541Z,72.85
2022-10-09T23:46:03.718Z,73.08
2022-10-09T23:48:30.369Z,72.96
2022-10-09T23:50:57.076Z,72.92
2022-10-09T23:53:25.779Z,73.26
2022-10-09T23:55:52.689Z,73.23
2022-10-09T23:58:21.059Z,73.10
